sensor_id;sensor_type;location;lat;lon;timestamp;P1;durP1;ratioP1;P2;durP2;ratioP2
15665;SDS011;20725;51.196;3.510;2023-05-10T00:04:30;43.13;;;22.30;;
15665;SDS011;20725;51.196;3.510;2023-05-10T00:07:00;45.40;;;26.03;;
15665;SDS011;20725;51.196;3.510;2023-05-10T00:09:32;53.57;;;28.33;;
15665;SDS011;20725;51.196;3.510;2023-05-10T00:11:59;47.63;;;27.17;;
15665;SDS011;20725;51.196;3.510;2023-05-10T00:14:26;45.97;;;28.27;;
15665;SDS011;20725;51.196;3.510;2023-05-10T00:16:55;51.07;;;29.27;;
15665;SDS011;20725;51.196;3.510;2023-05-10T00:19:22;45.33;;;27.50;;
15665;SDS011;20725;51.196;3.510;2023-05-10T00:21:50;47.63;;;28.97;;
15665;SDS011;20725;51.196;3.510;2023-05-10T00:24:17;49.10;;;28.97;;
15665;SDS011;20725;51.196;3.510;2023-05-10T00:26:44;43.57;;;28.40;;
15665;SDS011;20725;51.196;3.510;2023-05-10T00:29:12;48.47;;;29.07;;
15665;SDS011;20725;51.196;3.510;2023-05-10T00:31:39;54.00;;;31.07;;
15665;SDS011;20725;51.196;3.510;2023-05-10T00:34:07;60.60;;;32.63;;
15665;SDS011;20725;51.196;3.510;2023-05-10T00:36:35;56.93;;;33.23;;
15665;SDS011;20725;51.196;3.510;2023-05-10T00:39:02;60.17;;;36.17;;
15665;SDS011;20725;51.196;3.510;2023-05-10T00:41:30;61.13;;;34.63;;
15665;SDS011;20725;51.196;3.510;2023-05-10T00:43:58;65.27;;;34.37;;
15665;SDS011;20725;51.196;3.510;2023-05-10T00:46:25;69.97;;;35.70;;
15665;SDS011;20725;51.196;3.510;2023-05-10T00:48:56;70.60;;;35.93;;
15665;SDS011;20725;51.196;3.510;2023-05-10T00:51:24;65.23;;;35.70;;
15665;SDS011;20725;51.196;3.510;2023-05-10T00:53:52;66.53;;;37.77;;
15665;SDS011;20725;51.196;3.510;2023-05-10T00:56:21;71.23;;;37.90;;
15665;SDS011;20725;51.196;3.510;2023-05-10T00:58:49;71.83;;;38.47;;
15665;SDS011;20725;51.196;3.510;2023-05-10T01:03:52;72.23;;;37.10;;
15665;SDS011;20725;51.196;3.510;2023-05-10T01:06:20;65.57;;;36.13;;
15665;SDS011;20725;51.196;3.510;2023-05-10T01:08:48;65.13;;;36.93;;
15665;SDS011;20725;51.196;3.510;2023-05-10T01:11:16;62.03;;;34.27;;
15665;SDS011;20725;51.196;3.510;2023-05-10T01:13:43;59.63;;;34.93;;
15665;SDS011;20725;51.196;3.510;2023-05-10T01:16:14;61.03;;;34.17;;
15665;SDS011;20725;51.196;3.510;2023-05-10T01:18:41;57.37;;;32.37;;
15665;SDS011;20725;51.196;3.510;2023-05-10T01:21:15;57.63;;;33.00;;
15665;SDS011;20725;51.196;3.510;2023-05-10T01:29:21;65.53;;;32.80;;
15665;SDS011;20725;51.196;3.510;2023-05-10T01:32:01;63.17;;;33.73;;
15665;SDS011;20725;51.196;3.510;2023-05-10T01:34:34;68.70;;;36.00;;
15665;SDS011;20725;51.196;3.510;2023-05-10T01:37:04;65.93;;;35.93;;
15665;SDS011;20725;51.196;3.510;2023-05-10T01:39:36;69.07;;;34.60;;
15665;SDS011;20725;51.196;3.510;2023-05-10T01:42:06;75.90;;;36.00;;
15665;SDS011;20725;51.196;3.510;2023-05-10T01:44:35;68.53;;;36.30;;
15665;SDS011;20725;51.196;3.510;2023-05-10T01:47:09;68.33;;;34.87;;
15665;SDS011;20725;51.196;3.510;2023-05-10T01:49:39;65.83;;;34.67;;
15665;SDS011;20725;51.196;3.510;2023-05-10T01:52:10;63.17;;;33.73;;
15665;SDS011;20725;51.196;3.510;2023-05-10T01:54:38;65.13;;;34.57;;
15665;SDS011;20725;51.196;3.510;2023-05-10T01:57:08;63.27;;;33.03;;
15665;SDS011;20725;51.196;3.510;2023-05-10T01:59:37;58.03;;;31.93;;
15665;SDS011;20725;51.196;3.510;2023-05-10T02:02:08;59.17;;;29.60;;
15665;SDS011;20725;51.196;3.510;2023-05-10T02:04:37;54.97;;;29.87;;
15665;SDS011;20725;51.196;3.510;2023-05-10T02:07:05;60.87;;;33.10;;
15665;SDS011;20725;51.196;3.510;2023-05-10T02:09:33;53.20;;;31.37;;
15665;SDS011;20725;51.196;3.510;2023-05-10T02:12:01;49.60;;;29.07;;
15665;SDS011;20725;51.196;3.510;2023-05-10T02:14:29;55.63;;;29.73;;
15665;SDS011;20725;51.196;3.510;2023-05-10T02:16:57;50.57;;;28.50;;
15665;SDS011;20725;51.196;3.510;2023-05-10T02:19:26;54.00;;;29.33;;
15665;SDS011;20725;51.196;3.510;2023-05-10T02:21:55;44.30;;;27.30;;
15665;SDS011;20725;51.196;3.510;2023-05-10T02:24:22;51.23;;;28.03;;
15665;SDS011;20725;51.196;3.510;2023-05-10T02:26:51;47.47;;;27.63;;
15665;SDS011;20725;51.196;3.510;2023-05-10T02:29:20;42.27;;;25.83;;
15665;SDS011;20725;51.196;3.510;2023-05-10T02:31:49;43.00;;;26.23;;
15665;SDS011;20725;51.196;3.510;2023-05-10T02:34:17;41.80;;;27.70;;
15665;SDS011;20725;51.196;3.510;2023-05-10T02:36:47;46.50;;;27.70;;
15665;SDS011;20725;51.196;3.510;2023-05-10T02:39:15;43.73;;;26.67;;
15665;SDS011;20725;51.196;3.510;2023-05-10T02:41:42;42.27;;;27.13;;
15665;SDS011;20725;51.196;3.510;2023-05-10T02:44:11;43.93;;;26.87;;
15665;SDS011;20725;51.196;3.510;2023-05-10T02:46:40;43.73;;;27.10;;
15665;SDS011;20725;51.196;3.510;2023-05-10T02:49:08;39.97;;;25.50;;
15665;SDS011;20725;51.196;3.510;2023-05-10T02:51:36;40.17;;;25.90;;
15665;SDS011;20725;51.196;3.510;2023-05-10T02:54:06;40.23;;;26.53;;
15665;SDS011;20725;51.196;3.510;2023-05-10T02:56:38;44.00;;;28.93;;
15665;SDS011;20725;51.196;3.510;2023-05-10T02:59:07;42.27;;;27.03;;
15665;SDS011;20725;51.196;3.510;2023-05-10T03:01:34;45.43;;;27.47;;
15665;SDS011;20725;51.196;3.510;2023-05-10T03:04:02;41.37;;;27.90;;
15665;SDS011;20725;51.196;3.510;2023-05-10T03:06:29;38.20;;;25.93;;
15665;SDS011;20725;51.196;3.510;2023-05-10T03:08:56;38.03;;;27.57;;
15665;SDS011;20725;51.196;3.510;2023-05-10T03:11:39;41.10;;;27.60;;
15665;SDS011;20725;51.196;3.510;2023-05-10T03:14:13;42.23;;;27.53;;
15665;SDS011;20725;51.196;3.510;2023-05-10T03:16:45;42.07;;;26.40;;
15665;SDS011;20725;51.196;3.510;2023-05-10T03:19:15;45.97;;;28.27;;
15665;SDS011;20725;51.196;3.510;2023-05-10T03:21:44;39.00;;;27.90;;
15665;SDS011;20725;51.196;3.510;2023-05-10T03:24:14;40.43;;;26.63;;
15665;SDS011;20725;51.196;3.510;2023-05-10T03:26:43;45.97;;;28.00;;
15665;SDS011;20725;51.196;3.510;2023-05-10T03:29:11;43.57;;;28.60;;
15665;SDS011;20725;51.196;3.510;2023-05-10T03:31:38;45.47;;;29.50;;
15665;SDS011;20725;51.196;3.510;2023-05-10T03:34:06;44.43;;;28.20;;
15665;SDS011;20725;51.196;3.510;2023-05-10T03:36:33;44.07;;;28.83;;
15665;SDS011;20725;51.196;3.510;2023-05-10T03:39:01;49.37;;;29.00;;
15665;SDS011;20725;51.196;3.510;2023-05-10T03:41:28;42.83;;;26.80;;
15665;SDS011;20725;51.196;3.510;2023-05-10T03:43:57;47.70;;;29.17;;
15665;SDS011;20725;51.196;3.510;2023-05-10T03:46:24;46.23;;;29.97;;
15665;SDS011;20725;51.196;3.510;2023-05-10T03:48:52;41.27;;;27.57;;
15665;SDS011;20725;51.196;3.510;2023-05-10T03:51:19;47.43;;;27.77;;
15665;SDS011;20725;51.196;3.510;2023-05-10T03:53:47;39.13;;;27.30;;
15665;SDS011;20725;51.196;3.510;2023-05-10T03:56:14;43.57;;;28.10;;
15665;SDS011;20725;51.196;3.510;2023-05-10T03:58:41;43.60;;;27.70;;
15665;SDS011;20725;51.196;3.510;2023-05-10T04:01:10;41.17;;;27.27;;
15665;SDS011;20725;51.196;3.510;2023-05-10T04:03:37;38.30;;;26.97;;
15665;SDS011;20725;51.196;3.510;2023-05-10T04:06:05;39.73;;;26.63;;
15665;SDS011;20725;51.196;3.510;2023-05-10T04:08:36;37.77;;;25.27;;
15665;SDS011;20725;51.196;3.510;2023-05-10T04:11:07;41.57;;;26.90;;
15665;SDS011;20725;51.196;3.510;2023-05-10T04:13:34;38.17;;;26.33;;
15665;SDS011;20725;51.196;3.510;2023-05-10T04:16:01;41.00;;;27.10;;
15665;SDS011;20725;51.196;3.510;2023-05-10T04:18:30;36.50;;;25.83;;
15665;SDS011;20725;51.196;3.510;2023-05-10T04:20:58;36.03;;;25.80;;
15665;SDS011;20725;51.196;3.510;2023-05-10T04:23:25;32.80;;;24.40;;
15665;SDS011;20725;51.196;3.510;2023-05-10T04:25:52;33.70;;;24.60;;
15665;SDS011;20725;51.196;3.510;2023-05-10T04:28:19;35.90;;;25.33;;
15665;SDS011;20725;51.196;3.510;2023-05-10T04:30:47;27.73;;;22.10;;
15665;SDS011;20725;51.196;3.510;2023-05-10T04:33:14;27.63;;;21.17;;
15665;SDS011;20725;51.196;3.510;2023-05-10T04:35:42;23.40;;;20.57;;
15665;SDS011;20725;51.196;3.510;2023-05-10T04:38:10;23.67;;;20.63;;
15665;SDS011;20725;51.196;3.510;2023-05-10T04:40:38;29.00;;;21.53;;
15665;SDS011;20725;51.196;3.510;2023-05-10T04:43:05;28.23;;;21.53;;
15665;SDS011;20725;51.196;3.510;2023-05-10T04:45:32;24.33;;;20.10;;
15665;SDS011;20725;51.196;3.510;2023-05-10T04:47:59;25.80;;;20.70;;
15665;SDS011;20725;51.196;3.510;2023-05-10T04:50:30;27.40;;;21.07;;
15665;SDS011;20725;51.196;3.510;2023-05-10T04:52:59;27.57;;;21.67;;
15665;SDS011;20725;51.196;3.510;2023-05-10T04:55:26;29.83;;;21.27;;
15665;SDS011;20725;51.196;3.510;2023-05-10T04:57:54;29.50;;;22.73;;
15665;SDS011;20725;51.196;3.510;2023-05-10T05:00:22;28.07;;;21.70;;
15665;SDS011;20725;51.196;3.510;2023-05-10T05:02:52;28.03;;;21.23;;
15665;SDS011;20725;51.196;3.510;2023-05-10T05:05:22;29.90;;;22.60;;
15665;SDS011;20725;51.196;3.510;2023-05-10T05:07:50;27.63;;;21.97;;
15665;SDS011;20725;51.196;3.510;2023-05-10T05:10:18;30.17;;;22.40;;
15665;SDS011;20725;51.196;3.510;2023-05-10T05:12:46;28.10;;;22.27;;
15665;SDS011;20725;51.196;3.510;2023-05-10T05:15:13;27.53;;;22.50;;
15665;SDS011;20725;51.196;3.510;2023-05-10T05:17:41;28.17;;;23.17;;
15665;SDS011;20725;51.196;3.510;2023-05-10T05:20:09;27.60;;;22.60;;
15665;SDS011;20725;51.196;3.510;2023-05-10T05:22:36;24.70;;;22.07;;
15665;SDS011;20725;51.196;3.510;2023-05-10T05:25:04;29.23;;;23.67;;
15665;SDS011;20725;51.196;3.510;2023-05-10T05:27:33;27.23;;;22.07;;
15665;SDS011;20725;51.196;3.510;2023-05-10T05:30:00;29.67;;;23.00;;
15665;SDS011;20725;51.196;3.510;2023-05-10T05:32:28;22.50;;;20.10;;
15665;SDS011;20725;51.196;3.510;2023-05-10T05:34:55;24.97;;;20.17;;
15665;SDS011;20725;51.196;3.510;2023-05-10T05:37:22;23.83;;;20.67;;
15665;SDS011;20725;51.196;3.510;2023-05-10T05:39:50;27.33;;;19.87;;
15665;SDS011;20725;51.196;3.510;2023-05-10T05:42:17;24.87;;;20.43;;
15665;SDS011;20725;51.196;3.510;2023-05-10T05:44:46;24.47;;;19.37;;
15665;SDS011;20725;51.196;3.510;2023-05-10T05:47:13;27.80;;;19.60;;
15665;SDS011;20725;51.196;3.510;2023-05-10T05:49:40;23.20;;;18.93;;
15665;SDS011;20725;51.196;3.510;2023-05-10T05:52:07;21.70;;;18.67;;
15665;SDS011;20725;51.196;3.510;2023-05-10T05:54:34;22.17;;;18.17;;
15665;SDS011;20725;51.196;3.510;2023-05-10T05:57:02;22.93;;;18.07;;
15665;SDS011;20725;51.196;3.510;2023-05-10T05:59:29;21.33;;;18.60;;
15665;SDS011;20725;51.196;3.510;2023-05-10T06:01:58;19.97;;;17.00;;
15665;SDS011;20725;51.196;3.510;2023-05-10T06:04:25;19.83;;;17.63;;
15665;SDS011;20725;51.196;3.510;2023-05-10T06:06:52;20.27;;;17.43;;
15665;SDS011;20725;51.196;3.510;2023-05-10T06:09:20;18.63;;;16.03;;
15665;SDS011;20725;51.196;3.510;2023-05-10T06:11:48;19.60;;;16.17;;
15665;SDS011;20725;51.196;3.510;2023-05-10T06:14:15;19.87;;;16.30;;
15665;SDS011;20725;51.196;3.510;2023-05-10T06:16:43;17.43;;;15.47;;
15665;SDS011;20725;51.196;3.510;2023-05-10T06:19:11;16.60;;;14.97;;
15665;SDS011;20725;51.196;3.510;2023-05-10T06:21:41;15.60;;;14.00;;
15665;SDS011;20725;51.196;3.510;2023-05-10T06:24:08;14.07;;;12.63;;
15665;SDS011;20725;51.196;3.510;2023-05-10T06:26:35;16.13;;;14.53;;
15665;SDS011;20725;51.196;3.510;2023-05-10T06:29:03;14.70;;;13.20;;
15665;SDS011;20725;51.196;3.510;2023-05-10T06:31:30;15.87;;;13.90;;
15665;SDS011;20725;51.196;3.510;2023-05-10T06:33:57;15.23;;;13.77;;
15665;SDS011;20725;51.196;3.510;2023-05-10T06:36:26;15.97;;;14.17;;
15665;SDS011;20725;51.196;3.510;2023-05-10T06:38:53;14.83;;;13.20;;
15665;SDS011;20725;51.196;3.510;2023-05-10T06:41:23;13.00;;;11.27;;
15665;SDS011;20725;51.196;3.510;2023-05-10T06:43:51;12.40;;;11.17;;
15665;SDS011;20725;51.196;3.510;2023-05-10T06:46:18;12.23;;;11.03;;
15665;SDS011;20725;51.196;3.510;2023-05-10T06:48:45;12.60;;;10.90;;
15665;SDS011;20725;51.196;3.510;2023-05-10T06:51:12;11.70;;;10.63;;
15665;SDS011;20725;51.196;3.510;2023-05-10T06:53:46;12.30;;;9.37;;
15665;SDS011;20725;51.196;3.510;2023-05-10T06:56:14;11.17;;;10.10;;
15665;SDS011;20725;51.196;3.510;2023-05-10T06:58:41;10.17;;;9.27;;
15665;SDS011;20725;51.196;3.510;2023-05-10T07:01:10;9.10;;;8.17;;
15665;SDS011;20725;51.196;3.510;2023-05-10T07:03:40;9.27;;;8.50;;
15665;SDS011;20725;51.196;3.510;2023-05-10T07:06:23;7.73;;;7.03;;
15665;SDS011;20725;51.196;3.510;2023-05-10T07:08:58;6.03;;;5.37;;
15665;SDS011;20725;51.196;3.510;2023-05-10T07:11:39;5.20;;;4.40;;
15665;SDS011;20725;51.196;3.510;2023-05-10T07:14:12;6.03;;;4.50;;
15665;SDS011;20725;51.196;3.510;2023-05-10T07:16:40;5.73;;;5.20;;
15665;SDS011;20725;51.196;3.510;2023-05-10T07:19:18;5.03;;;4.67;;
15665;SDS011;20725;51.196;3.510;2023-05-10T07:21:45;5.83;;;5.00;;
15665;SDS011;20725;51.196;3.510;2023-05-10T07:24:14;5.27;;;4.77;;
15665;SDS011;20725;51.196;3.510;2023-05-10T07:26:41;4.50;;;3.97;;
15665;SDS011;20725;51.196;3.510;2023-05-10T07:29:09;7.27;;;4.20;;
15665;SDS011;20725;51.196;3.510;2023-05-10T07:31:38;4.27;;;3.57;;
15665;SDS011;20725;51.196;3.510;2023-05-10T07:34:07;2.93;;;2.73;;
15665;SDS011;20725;51.196;3.510;2023-05-10T07:36:34;3.47;;;3.17;;
15665;SDS011;20725;51.196;3.510;2023-05-10T07:39:02;3.20;;;2.90;;
15665;SDS011;20725;51.196;3.510;2023-05-10T07:41:30;4.63;;;3.97;;
15665;SDS011;20725;51.196;3.510;2023-05-10T07:43:58;8.87;;;8.07;;
15665;SDS011;20725;51.196;3.510;2023-05-10T07:46:25;9.43;;;8.53;;
15665;SDS011;20725;51.196;3.510;2023-05-10T07:48:52;10.03;;;9.13;;
15665;SDS011;20725;51.196;3.510;2023-05-10T07:51:20;11.20;;;10.00;;
15665;SDS011;20725;51.196;3.510;2023-05-10T07:53:47;10.53;;;9.53;;
15665;SDS011;20725;51.196;3.510;2023-05-10T07:56:22;8.27;;;7.47;;
15665;SDS011;20725;51.196;3.510;2023-05-10T07:58:53;10.80;;;8.40;;
15665;SDS011;20725;51.196;3.510;2023-05-10T08:01:21;8.63;;;7.83;;
15665;SDS011;20725;51.196;3.510;2023-05-10T08:03:49;9.27;;;7.60;;
15665;SDS011;20725;51.196;3.510;2023-05-10T08:06:18;7.33;;;6.73;;
15665;SDS011;20725;51.196;3.510;2023-05-10T08:08:46;8.00;;;7.20;;
15665;SDS011;20725;51.196;3.510;2023-05-10T08:11:15;9.63;;;8.00;;
15665;SDS011;20725;51.196;3.510;2023-05-10T08:13:43;9.40;;;8.50;;
15665;SDS011;20725;51.196;3.510;2023-05-10T08:16:26;9.00;;;8.20;;
15665;SDS011;20725;51.196;3.510;2023-05-10T08:18:59;8.43;;;7.63;;
15665;SDS011;20725;51.196;3.510;2023-05-10T08:21:52;8.93;;;8.13;;
15665;SDS011;20725;51.196;3.510;2023-05-10T08:24:27;7.77;;;7.13;;
15665;SDS011;20725;51.196;3.510;2023-05-10T08:26:55;7.63;;;7.00;;
15665;SDS011;20725;51.196;3.510;2023-05-10T08:29:32;6.07;;;5.47;;
15665;SDS011;20725;51.196;3.510;2023-05-10T08:32:16;6.50;;;5.90;;
15665;SDS011;20725;51.196;3.510;2023-05-10T08:34:46;6.43;;;5.77;;
15665;SDS011;20725;51.196;3.510;2023-05-10T08:37:34;9.53;;;7.37;;
15665;SDS011;20725;51.196;3.510;2023-05-10T08:43:04;5.37;;;4.90;;
15665;SDS011;20725;51.196;3.510;2023-05-10T08:45:43;5.80;;;5.00;;
15665;SDS011;20725;51.196;3.510;2023-05-10T08:50:58;6.70;;;4.67;;
15665;SDS011;20725;51.196;3.510;2023-05-10T12:09:17;13.20;;;8.10;;
15665;SDS011;20725;51.196;3.510;2023-05-10T13:30:24;13.00;;;7.30;;
15665;SDS011;20725;51.196;3.510;2023-05-10T13:33:06;11.20;;;6.50;;
15665;SDS011;20725;51.196;3.510;2023-05-10T13:43:06;10.90;;;6.30;;
15665;SDS011;20725;51.196;3.510;2023-05-10T13:48:07;9.60;;;5.50;;
15665;SDS011;20725;51.196;3.510;2023-05-10T19:16:11;11.90;;;6.10;;
15665;SDS011;20725;51.196;3.510;2023-05-10T19:18:39;13.10;;;5.57;;
15665;SDS011;20725;51.196;3.510;2023-05-10T19:28:30;8.47;;;5.83;;
15665;SDS011;20725;51.196;3.510;2023-05-10T19:30:58;11.85;;;6.15;;
15665;SDS011;20725;51.196;3.510;2023-05-10T19:40:49;15.25;;;6.85;;
15665;SDS011;20725;51.196;3.510;2023-05-10T19:43:21;13.33;;;6.43;;
15665;SDS011;20725;51.196;3.510;2023-05-10T19:45:49;16.10;;;7.30;;
15665;SDS011;20725;51.196;3.510;2023-05-10T19:53:20;16.50;;;6.80;;
15665;SDS011;20725;51.196;3.510;2023-05-10T19:58:16;11.95;;;6.35;;
15665;SDS011;20725;51.196;3.510;2023-05-10T20:00:44;11.47;;;6.40;;
15665;SDS011;20725;51.196;3.510;2023-05-10T20:05:38;16.55;;;6.45;;
15665;SDS011;20725;51.196;3.510;2023-05-10T20:08:09;13.00;;;7.30;;
15665;SDS011;20725;51.196;3.510;2023-05-10T20:13:04;12.70;;;6.60;;
15665;SDS011;20725;51.196;3.510;2023-05-10T20:15:33;15.45;;;7.30;;
15665;SDS011;20725;51.196;3.510;2023-05-10T20:18:02;15.67;;;6.90;;
15665;SDS011;20725;51.196;3.510;2023-05-10T20:20:29;15.03;;;7.03;;
15665;SDS011;20725;51.196;3.510;2023-05-10T20:32:49;16.37;;;7.83;;
15665;SDS011;20725;51.196;3.510;2023-05-10T20:42:39;15.10;;;8.30;;
15665;SDS011;20725;51.196;3.510;2023-05-10T20:45:13;12.40;;;7.70;;
15665;SDS011;20725;51.196;3.510;2023-05-10T20:47:44;14.40;;;7.40;;
15665;SDS011;20725;51.196;3.510;2023-05-10T21:00:06;12.07;;;6.87;;
15665;SDS011;20725;51.196;3.510;2023-05-10T21:02:34;16.05;;;6.60;;
15665;SDS011;20725;51.196;3.510;2023-05-10T21:05:09;15.30;;;7.10;;
15665;SDS011;20725;51.196;3.510;2023-05-10T21:07:39;18.17;;;7.40;;
15665;SDS011;20725;51.196;3.510;2023-05-10T21:15:12;13.20;;;6.00;;
15665;SDS011;20725;51.196;3.510;2023-05-10T21:25:01;8.50;;;6.20;;
15665;SDS011;20725;51.196;3.510;2023-05-10T21:32:25;14.30;;;5.85;;
15665;SDS011;20725;51.196;3.510;2023-05-10T21:37:20;10.90;;;6.10;;
15665;SDS011;20725;51.196;3.510;2023-05-10T21:39:48;11.93;;;5.70;;
15665;SDS011;20725;51.196;3.510;2023-05-10T21:42:16;14.37;;;6.63;;
15665;SDS011;20725;51.196;3.510;2023-05-10T21:44:45;16.10;;;5.80;;
15665;SDS011;20725;51.196;3.510;2023-05-10T21:47:13;11.10;;;6.03;;
15665;SDS011;20725;51.196;3.510;2023-05-10T21:49:43;13.70;;;6.20;;
15665;SDS011;20725;51.196;3.510;2023-05-10T21:52:12;14.40;;;6.00;;
15665;SDS011;20725;51.196;3.510;2023-05-10T21:59:34;11.85;;;5.75;;
15665;SDS011;20725;51.196;3.510;2023-05-10T22:06:57;20.10;;;6.70;;
15665;SDS011;20725;51.196;3.510;2023-05-10T22:11:52;13.00;;;6.90;;
15665;SDS011;20725;51.196;3.510;2023-05-10T22:14:19;10.17;;;6.03;;
15665;SDS011;20725;51.196;3.510;2023-05-10T22:19:13;14.45;;;7.20;;
15665;SDS011;20725;51.196;3.510;2023-05-10T22:26:37;15.90;;;7.40;;
15665;SDS011;20725;51.196;3.510;2023-05-10T22:29:05;12.57;;;6.37;;
15665;SDS011;20725;51.196;3.510;2023-05-10T22:31:33;13.20;;;7.50;;
15665;SDS011;20725;51.196;3.510;2023-05-10T22:34:00;18.40;;;7.80;;
15665;SDS011;20725;51.196;3.510;2023-05-10T22:36:28;18.90;;;7.10;;
15665;SDS011;20725;51.196;3.510;2023-05-10T22:38:56;13.20;;;7.00;;
15665;SDS011;20725;51.196;3.510;2023-05-10T22:41:26;17.87;;;7.77;;
15665;SDS011;20725;51.196;3.510;2023-05-10T22:43:57;9.80;;;6.10;;
15665;SDS011;20725;51.196;3.510;2023-05-10T22:46:25;9.73;;;5.57;;
15665;SDS011;20725;51.196;3.510;2023-05-10T22:48:53;9.63;;;5.50;;
15665;SDS011;20725;51.196;3.510;2023-05-10T22:51:21;9.23;;;5.00;;
15665;SDS011;20725;51.196;3.510;2023-05-10T22:53:48;11.60;;;6.00;;
15665;SDS011;20725;51.196;3.510;2023-05-10T22:56:16;14.00;;;6.30;;
15665;SDS011;20725;51.196;3.510;2023-05-10T22:58:43;17.13;;;7.53;;
15665;SDS011;20725;51.196;3.510;2023-05-10T23:01:12;15.33;;;7.00;;
15665;SDS011;20725;51.196;3.510;2023-05-10T23:03:40;12.17;;;7.00;;
15665;SDS011;20725;51.196;3.510;2023-05-10T23:06:10;13.70;;;6.67;;
15665;SDS011;20725;51.196;3.510;2023-05-10T23:08:38;13.57;;;7.37;;
15665;SDS011;20725;51.196;3.510;2023-05-10T23:11:10;16.57;;;7.83;;
15665;SDS011;20725;51.196;3.510;2023-05-10T23:13:37;21.03;;;7.90;;
15665;SDS011;20725;51.196;3.510;2023-05-10T23:16:05;16.03;;;8.17;;
15665;SDS011;20725;51.196;3.510;2023-05-10T23:18:34;14.40;;;7.40;;
15665;SDS011;20725;51.196;3.510;2023-05-10T23:21:02;11.10;;;6.63;;
15665;SDS011;20725;51.196;3.510;2023-05-10T23:23:29;13.60;;;7.40;;
15665;SDS011;20725;51.196;3.510;2023-05-10T23:25:58;13.57;;;7.80;;
15665;SDS011;20725;51.196;3.510;2023-05-10T23:28:25;13.20;;;6.70;;
15665;SDS011;20725;51.196;3.510;2023-05-10T23:30:53;12.73;;;8.10;;
15665;SDS011;20725;51.196;3.510;2023-05-10T23:33:21;18.47;;;8.43;;
15665;SDS011;20725;51.196;3.510;2023-05-10T23:35:52;16.50;;;8.27;;
15665;SDS011;20725;51.196;3.510;2023-05-10T23:38:20;19.40;;;8.10;;
15665;SDS011;20725;51.196;3.510;2023-05-10T23:40:48;13.60;;;8.53;;
15665;SDS011;20725;51.196;3.510;2023-05-10T23:43:15;21.73;;;9.23;;
15665;SDS011;20725;51.196;3.510;2023-05-10T23:45:50;22.97;;;9.70;;
15665;SDS011;20725;51.196;3.510;2023-05-10T23:50:45;24.90;;;10.17;;
15665;SDS011;20725;51.196;3.510;2023-05-10T23:53:14;26.90;;;9.13;;
15665;SDS011;20725;51.196;3.510;2023-05-10T23:55:41;20.65;;;9.90;;
15665;SDS011;20725;51.196;3.510;2023-05-10T23:58:09;22.27;;;9.23;;
